createdAt,value
2018-05-26T00:01:28.292Z,90.50
2018-05-26T00:03:54.509Z,91.00
2018-05-26T00:06:20.725Z,90.90
2018-05-26T00:08:46.939Z,90.40
2018-05-26T00:11:14.088Z,90.00
2018-05-26T00:13:41.060Z,90.00
2018-05-26T00:16:07.302Z,90.00
2018-05-26T00:18:33.516Z,89.90
2018-05-26T00:20:59.744Z,90.10
2018-05-26T00:23:25.978Z,90.30
2018-05-26T00:25:52.216Z,90.40
2018-05-26T00:28:19.183Z,90.40
2018-05-26T00:30:46.017Z,90.00
2018-05-26T00:33:13.499Z,90.10
2018-05-26T00:35:40.452Z,89.90
2018-05-26T00:38:07.416Z,90.30
2018-05-26T00:40:33.612Z,90.30
2018-05-26T00:42:59.882Z,90.40
2018-05-26T00:45:26.087Z,90.50
2018-05-26T00:47:53.073Z,90.90
2018-05-26T00:50:19.309Z,90.90
2018-05-26T00:52:45.668Z,90.90
2018-05-26T00:55:12.615Z,90.90
2018-05-26T00:57:38.813Z,90.90
2018-05-26T01:00:05.052Z,90.60
2018-05-26T01:02:32.094Z,90.90
2018-05-26T01:05:03.211Z,91.20
2018-05-26T01:07:29.668Z,91.00
2018-05-26T01:09:56.690Z,91.40
2018-05-26T01:12:23.038Z,91.40
2018-05-26T01:14:49.411Z,91.30
2018-05-26T01:17:16.144Z,91.20
2018-05-26T01:19:42.537Z,91.00
2018-05-26T01:22:08.767Z,91.10
2018-05-26T01:24:35.025Z,91.10
2018-05-26T01:27:01.321Z,91.50
2018-05-26T01:29:27.520Z,91.60
2018-05-26T01:31:53.782Z,91.90
2018-05-26T01:34:19.992Z,92.30
2018-05-26T01:36:46.201Z,92.20
2018-05-26T01:39:12.417Z,92.10
2018-05-26T01:41:39.392Z,92.60
2018-05-26T01:44:05.641Z,92.60
2018-05-26T01:46:31.845Z,92.60
2018-05-26T01:48:58.070Z,92.70
2018-05-26T01:51:24.327Z,92.70
2018-05-26T01:53:50.572Z,92.90
2018-05-26T01:56:18.385Z,93.20
2018-05-26T01:58:44.632Z,93.20
2018-05-26T02:01:10.877Z,93.00
2018-05-26T02:03:37.120Z,93.20
2018-05-26T02:06:03.335Z,93.30
2018-05-26T02:08:29.545Z,93.30
2018-05-26T02:10:55.748Z,93.30
2018-05-26T02:13:22.010Z,93.60
2018-05-26T02:15:48.979Z,93.80
2018-05-26T02:18:15.942Z,93.70
2018-05-26T02:20:42.923Z,93.70
2018-05-26T02:23:09.153Z,93.70
2018-05-26T02:25:35.442Z,93.90
2018-05-26T02:28:01.828Z,94.00
2018-05-26T02:30:28.090Z,94.20
2018-05-26T02:32:54.349Z,94.00
2018-05-26T02:35:20.572Z,94.00
2018-05-26T02:37:46.769Z,94.10
2018-05-26T02:40:12.990Z,94.10
2018-05-26T02:42:39.195Z,94.10
2018-05-26T02:45:05.427Z,94.40
2018-05-26T02:47:31.851Z,94.40
2018-05-26T02:49:58.197Z,94.50
2018-05-26T02:52:24.408Z,94.50
2018-05-26T02:54:50.633Z,94.70
2018-05-26T02:57:16.863Z,94.60
2018-05-26T02:59:43.966Z,94.70
2018-05-26T03:02:10.969Z,94.80
2018-05-26T03:04:44.424Z,94.70
2018-05-26T03:07:16.736Z,95.00
2018-05-26T03:09:49.005Z,95.00
2018-05-26T03:12:21.238Z,95.10
2018-05-26T03:14:47.438Z,94.90
2018-05-26T03:17:18.453Z,94.80
2018-05-26T03:19:44.675Z,94.80
2018-05-26T03:22:10.976Z,94.90
2018-05-26T03:24:37.197Z,95.20
2018-05-26T03:27:03.412Z,95.20
2018-05-26T03:29:29.635Z,95.00
2018-05-26T03:31:55.881Z,95.00
2018-05-26T03:34:23.196Z,95.60
2018-05-26T03:36:50.144Z,95.50
2018-05-26T03:39:17.146Z,95.70
2018-05-26T03:41:43.504Z,95.70
2018-05-26T03:44:09.748Z,95.90
2018-05-26T03:46:36.722Z,96.00
2018-05-26T03:49:02.925Z,95.90
2018-05-26T03:51:29.135Z,95.60
2018-05-26T03:53:55.349Z,95.30
2018-05-26T03:56:33.918Z,95.10
2018-05-26T03:59:12.408Z,95.10
2018-05-26T04:01:39.375Z,95.20
2018-05-26T04:04:05.609Z,95.20
2018-05-26T04:06:31.828Z,95.40
2018-05-26T04:08:58.041Z,95.20
2018-05-26T04:11:25.063Z,95.50
2018-05-26T04:13:51.248Z,95.40
2018-05-26T04:16:17.486Z,95.30
2018-05-26T04:18:43.885Z,95.60
2018-05-26T04:21:10.130Z,95.70
2018-05-26T04:23:36.371Z,95.60
2018-05-26T04:26:02.588Z,95.60
2018-05-26T04:28:28.814Z,95.60
2018-05-26T04:30:55.045Z,95.40
2018-05-26T04:33:21.277Z,95.40
2018-05-26T04:35:47.517Z,95.40
2018-05-26T04:38:13.733Z,95.90
2018-05-26T04:40:39.937Z,95.80
2018-05-26T04:43:06.148Z,95.80
2018-05-26T04:45:33.274Z,95.80
2018-05-26T04:47:59.491Z,95.80
2018-05-26T04:50:25.953Z,95.80
2018-05-26T04:52:52.960Z,94.80
2018-05-26T04:55:19.170Z,94.80
2018-05-26T04:57:45.426Z,95.10
2018-05-26T05:00:12.397Z,94.90
2018-05-26T05:02:39.375Z,94.70
2018-05-26T05:05:05.601Z,94.70
2018-05-26T05:07:31.860Z,94.70
2018-05-26T05:09:58.141Z,94.80
2018-05-26T05:12:24.396Z,94.80
2018-05-26T05:14:50.595Z,94.80
2018-05-26T05:17:16.834Z,94.60
2018-05-26T05:19:43.069Z,94.40
2018-05-26T05:22:09.304Z,94.20
2018-05-26T05:24:35.525Z,94.50
2018-05-26T05:27:01.811Z,94.40
2018-05-26T05:29:28.788Z,94.40
2018-05-26T05:31:56.746Z,94.20
2018-05-26T05:34:23.739Z,93.60
2018-05-26T05:36:49.976Z,93.60
2018-05-26T05:39:16.163Z,93.00
2018-05-26T05:41:42.432Z,93.60
2018-05-26T05:44:08.636Z,93.50
2018-05-26T05:46:34.886Z,92.50
2018-05-26T05:49:01.131Z,93.20
2018-05-26T05:51:27.329Z,92.70
2018-05-26T05:53:53.576Z,91.90
2018-05-26T05:56:20.583Z,92.00
2018-05-26T05:58:46.863Z,91.90
2018-05-26T06:01:13.117Z,91.90
2018-05-26T06:03:39.293Z,91.80
2018-05-26T06:06:05.529Z,91.90
2018-05-26T06:08:31.752Z,91.50
2018-05-26T06:10:57.966Z,91.20
2018-05-26T06:13:24.188Z,91.60
2018-05-26T06:15:50.395Z,90.90
2018-05-26T06:18:16.657Z,91.50
2018-05-26T06:20:42.893Z,90.80
2018-05-26T06:23:09.154Z,90.00
2018-05-26T06:25:35.553Z,90.00
2018-05-26T06:28:01.765Z,89.70
2018-05-26T06:30:27.994Z,88.10
2018-05-26T06:32:54.203Z,87.40
2018-05-26T06:35:20.414Z,85.90
2018-05-26T06:37:46.729Z,83.40
2018-05-26T06:40:13.744Z,80.30
2018-05-26T06:42:40.040Z,80.30
2018-05-26T06:45:06.252Z,78.90
2018-05-26T06:47:32.496Z,76.60
2018-05-26T06:49:58.722Z,75.60
2018-05-26T06:52:24.981Z,72.90
2018-05-26T06:54:51.261Z,69.20
2018-05-26T06:57:17.637Z,65.40
2018-05-26T06:59:43.970Z,59.90
2018-05-26T07:02:10.289Z,58.50
2018-05-26T07:04:36.493Z,59.30
2018-05-26T07:07:02.757Z,56.60
2018-05-26T07:09:30.347Z,55.00
2018-05-26T07:11:57.309Z,53.00
2018-05-26T07:14:24.378Z,50.40
2018-05-26T07:16:50.645Z,50.40
2018-05-26T07:19:16.927Z,49.90
2018-05-26T07:21:43.141Z,49.40
2018-05-26T07:24:09.360Z,49.00
2018-05-26T07:26:35.616Z,48.60
2018-05-26T07:29:01.900Z,46.40
2018-05-26T07:31:28.887Z,45.60
2018-05-26T07:33:55.122Z,45.50
2018-05-26T07:36:21.419Z,45.10
2018-05-26T07:38:47.693Z,44.90
2018-05-26T07:41:13.894Z,45.40
2018-05-26T07:43:40.131Z,44.20
2018-05-26T07:46:06.348Z,42.30
2018-05-26T07:48:32.558Z,42.80
2018-05-26T07:50:58.763Z,41.00
2018-05-26T07:53:25.066Z,40.90
2018-05-26T07:55:51.272Z,40.80
2018-05-26T07:58:17.497Z,41.70
2018-05-26T08:00:43.810Z,41.20
2018-05-26T08:03:10.008Z,39.10
2018-05-26T08:05:36.228Z,39.40
2018-05-26T08:08:02.432Z,38.60
2018-05-26T08:10:28.676Z,39.60
2018-05-26T08:12:54.937Z,38.50
2018-05-26T08:15:21.192Z,39.30
2018-05-26T08:17:47.408Z,37.20
2018-05-26T08:20:13.641Z,39.50
2018-05-26T08:22:39.857Z,37.30
2018-05-26T08:25:06.132Z,36.90
2018-05-26T08:27:32.472Z,35.00
2018-05-26T08:29:58.732Z,35.70
2018-05-26T08:32:25.413Z,35.00
2018-05-26T08:34:51.652Z,35.50
2018-05-26T08:37:17.874Z,33.80
2018-05-26T08:39:44.100Z,34.10
2018-05-26T08:42:10.379Z,35.00
2018-05-26T08:44:37.328Z,33.70
2018-05-26T08:47:03.579Z,33.70
2018-05-26T08:49:29.824Z,32.70
2018-05-26T08:51:56.072Z,33.30
2018-05-26T08:54:22.330Z,33.60
2018-05-26T08:56:49.313Z,34.30
2018-05-26T08:59:15.540Z,34.30
2018-05-26T09:01:41.762Z,33.00
2018-05-26T09:04:08.000Z,33.40
2018-05-26T09:06:34.305Z,32.60
2018-05-26T09:09:00.561Z,33.50
2018-05-26T09:11:26.783Z,34.40
2018-05-26T09:13:53.029Z,33.30
2018-05-26T09:16:19.513Z,32.40
2018-05-26T09:18:46.885Z,31.90
2018-05-26T09:21:13.157Z,31.80
2018-05-26T09:23:39.473Z,32.10
2018-05-26T09:26:05.692Z,32.00
2018-05-26T09:28:31.913Z,32.60
2018-05-26T09:30:58.126Z,32.10
2018-05-26T09:33:24.331Z,31.60
2018-05-26T09:35:51.284Z,33.10
2018-05-26T09:38:18.236Z,31.90
2018-05-26T09:40:44.546Z,31.90
2018-05-26T09:43:11.528Z,32.20
2018-05-26T09:45:37.768Z,32.10
2018-05-26T09:48:03.979Z,31.60
2018-05-26T09:50:30.218Z,30.20
2018-05-26T09:52:56.432Z,31.60
2018-05-26T09:55:22.668Z,30.70
2018-05-26T09:57:48.891Z,29.90
2018-05-26T10:00:15.206Z,31.00
2018-05-26T10:02:41.434Z,32.80
2018-05-26T10:05:07.636Z,31.10
2018-05-26T10:07:33.896Z,29.80
2018-05-26T10:10:00.096Z,32.00
2018-05-26T10:12:27.044Z,29.90
2018-05-26T10:14:53.624Z,29.70
2018-05-26T10:17:19.868Z,31.40
2018-05-26T10:19:46.150Z,31.60
2018-05-26T10:22:12.422Z,30.10
2018-05-26T10:24:38.639Z,30.10
2018-05-26T10:27:04.882Z,30.10
2018-05-26T10:29:31.148Z,31.70
2018-05-26T10:31:58.136Z,32.30
2018-05-26T10:34:25.187Z,32.20
2018-05-26T10:36:51.412Z,32.60
2018-05-26T10:39:17.676Z,33.20
2018-05-26T10:41:44.732Z,35.30
2018-05-26T10:44:11.123Z,35.30
2018-05-26T10:46:37.349Z,34.10
2018-05-26T10:49:03.577Z,36.00
2018-05-26T10:51:29.780Z,35.70
2018-05-26T10:53:56.093Z,35.30
2018-05-26T10:56:23.081Z,36.40
2018-05-26T10:58:49.328Z,36.30
2018-05-26T11:01:15.565Z,36.00
2018-05-26T11:03:41.763Z,36.50
2018-05-26T11:06:07.981Z,36.20
2018-05-26T11:08:34.198Z,36.60
2018-05-26T11:11:00.489Z,36.60
2018-05-26T11:13:27.559Z,37.10
2018-05-26T11:15:54.843Z,35.80
2018-05-26T11:18:21.821Z,36.00
2018-05-26T11:20:48.047Z,36.00
2018-05-26T11:23:14.343Z,35.30
2018-05-26T11:25:40.599Z,36.40
2018-05-26T11:28:06.828Z,36.70
2018-05-26T11:30:33.074Z,33.90
2018-05-26T11:33:00.182Z,35.10
2018-05-26T11:35:27.151Z,33.90
2018-05-26T11:37:53.395Z,33.90
2018-05-26T11:40:20.086Z,36.50
2018-05-26T11:42:46.343Z,36.50
2018-05-26T11:45:14.262Z,37.10
2018-05-26T11:47:40.684Z,37.20
2018-05-26T11:50:06.940Z,37.40
2018-05-26T11:52:33.222Z,37.60
2018-05-26T11:55:00.668Z,38.00
2018-05-26T11:57:27.671Z,36.50
2018-05-26T11:59:53.916Z,36.50
2018-05-26T12:02:20.096Z,38.90
2018-05-26T12:04:47.047Z,37.10
2018-05-26T12:07:13.239Z,37.00
2018-05-26T12:09:40.669Z,37.90
2018-05-26T12:12:06.953Z,37.40
2018-05-26T12:14:33.193Z,37.90
2018-05-26T12:16:59.441Z,40.80
2018-05-26T12:19:25.673Z,39.40
2018-05-26T12:21:51.910Z,38.40
2018-05-26T12:24:18.137Z,39.30
2018-05-26T12:26:44.371Z,39.20
2018-05-26T12:29:10.599Z,38.60
2018-05-26T12:31:36.917Z,35.70
2018-05-26T12:34:03.262Z,36.20
2018-05-26T12:36:29.510Z,37.00
2018-05-26T12:38:56.468Z,37.10
2018-05-26T12:41:23.472Z,36.60
2018-05-26T12:43:49.738Z,36.50
2018-05-26T12:46:16.757Z,37.60
2018-05-26T12:48:43.063Z,37.60
2018-05-26T12:51:10.648Z,36.80
2018-05-26T12:53:36.986Z,37.30
2018-05-26T12:56:03.222Z,35.10
2018-05-26T12:58:30.195Z,36.20
2018-05-26T13:00:56.436Z,36.20
2018-05-26T13:03:22.664Z,36.70
2018-05-26T13:05:48.897Z,37.20
2018-05-26T13:08:15.363Z,36.60
2018-05-26T13:10:43.292Z,38.20
2018-05-26T13:13:09.575Z,38.20
2018-05-26T13:15:35.812Z,43.60
2018-05-26T13:18:02.056Z,40.50
2018-05-26T13:20:29.024Z,37.50
2018-05-26T13:22:55.241Z,37.50
2018-05-26T13:25:21.494Z,37.00
2018-05-26T13:27:47.783Z,39.70
2018-05-26T13:30:14.084Z,38.00
2018-05-26T13:32:40.344Z,37.40
2018-05-26T13:35:07.308Z,37.10
2018-05-26T13:37:33.524Z,37.00
2018-05-26T13:39:59.770Z,38.50
2018-05-26T13:42:25.995Z,38.80
2018-05-26T13:44:52.293Z,38.00
2018-05-26T13:47:19.277Z,38.80
2018-05-26T13:49:45.515Z,38.70
2018-05-26T13:52:11.803Z,39.60
2018-05-26T13:54:38.836Z,40.00
2018-05-26T13:57:05.116Z,40.00
2018-05-26T13:59:32.264Z,40.00
2018-05-26T14:01:58.542Z,40.20
2018-05-26T14:04:24.899Z,40.10
2018-05-26T14:06:51.147Z,40.60
2018-05-26T14:09:17.362Z,39.50
2018-05-26T14:11:43.570Z,39.00
2018-05-26T14:14:10.536Z,40.50
2018-05-26T14:16:36.841Z,40.50
2018-05-26T14:19:03.814Z,40.00
2018-05-26T14:21:30.061Z,39.90
2018-05-26T14:23:56.377Z,39.20
2018-05-26T14:26:22.656Z,40.30
2018-05-26T14:28:48.855Z,39.80
2018-05-26T14:31:15.066Z,39.20
2018-05-26T14:33:41.288Z,40.20
2018-05-26T14:36:07.513Z,41.10
2018-05-26T14:38:33.744Z,39.20
2018-05-26T14:41:00.000Z,38.90
2018-05-26T14:43:26.237Z,39.80
2018-05-26T14:45:52.452Z,39.60
2018-05-26T14:48:18.751Z,38.70
2018-05-26T14:50:44.974Z,39.60
2018-05-26T14:53:11.344Z,40.70
2018-05-26T14:55:37.657Z,37.20
2018-05-26T14:58:04.226Z,39.90
2018-05-26T15:00:30.527Z,41.50
2018-05-26T15:02:56.794Z,42.70
2018-05-26T15:05:23.776Z,41.80
2018-05-26T15:07:50.027Z,41.80
2018-05-26T15:10:16.476Z,41.60
2018-05-26T15:12:42.861Z,46.40
2018-05-26T15:15:09.357Z,46.80
2018-05-26T15:17:35.596Z,44.80
2018-05-26T15:20:02.624Z,48.80
2018-05-26T15:22:29.601Z,47.40
2018-05-26T15:24:56.556Z,49.20
2018-05-26T15:27:22.815Z,49.10
2018-05-26T15:29:49.065Z,48.00
2018-05-26T15:32:15.354Z,45.10
2018-05-26T15:34:41.616Z,42.00
2018-05-26T15:37:07.860Z,41.60
2018-05-26T15:39:34.078Z,40.60
2018-05-26T15:42:00.296Z,43.20
2018-05-26T15:44:26.515Z,42.50
2018-05-26T15:46:52.770Z,43.40
2018-05-26T15:49:19.048Z,44.70
2018-05-26T15:51:45.260Z,45.70
2018-05-26T15:54:11.656Z,46.80
2018-05-26T15:56:37.832Z,45.50
2018-05-26T15:59:04.027Z,44.00
2018-05-26T16:01:30.229Z,42.60
2018-05-26T16:03:56.499Z,43.30
2018-05-26T16:06:22.721Z,42.40
2018-05-26T16:08:48.939Z,41.50
2018-05-26T16:11:15.935Z,41.10
2018-05-26T16:13:42.265Z,41.00
2018-05-26T16:16:08.537Z,41.10
2018-05-26T16:18:34.824Z,41.40
2018-05-26T16:21:01.092Z,39.70
2018-05-26T16:23:27.409Z,41.30
2018-05-26T16:25:54.462Z,40.50
2018-05-26T16:28:20.810Z,40.40
2018-05-26T16:30:47.830Z,42.40
2018-05-26T16:33:14.029Z,42.40
2018-05-26T16:35:40.249Z,47.20
2018-05-26T16:38:06.492Z,41.40
2018-05-26T16:40:32.757Z,42.00
2018-05-26T16:42:58.977Z,43.80
2018-05-26T16:45:25.275Z,43.90
2018-05-26T16:47:51.750Z,43.70
2018-05-26T16:50:18.851Z,40.80
2018-05-26T16:52:45.160Z,40.80
2018-05-26T16:55:11.592Z,41.80
2018-05-26T16:57:37.836Z,40.90
2018-05-26T17:00:04.091Z,41.30
2018-05-26T17:02:30.345Z,41.70
2018-05-26T17:04:56.572Z,41.70
2018-05-26T17:07:22.828Z,42.10
2018-05-26T17:09:49.060Z,42.30
2018-05-26T17:12:15.315Z,45.20
2018-05-26T17:14:41.530Z,43.80
2018-05-26T17:17:07.773Z,42.50
2018-05-26T17:19:33.990Z,43.00
2018-05-26T17:22:00.248Z,42.50
2018-05-26T17:24:26.479Z,42.90
2018-05-26T17:26:52.713Z,43.20
2018-05-26T17:29:18.947Z,43.30
2018-05-26T17:31:45.188Z,43.10
2018-05-26T17:34:12.147Z,43.90
2018-05-26T17:36:39.083Z,43.70
2018-05-26T17:39:06.085Z,44.50
2018-05-26T17:41:32.301Z,44.40
2018-05-26T17:43:58.620Z,43.60
2018-05-26T17:46:24.844Z,44.00
2018-05-26T17:48:51.080Z,43.80
2018-05-26T17:51:17.300Z,44.40
2018-05-26T17:53:43.568Z,44.40
2018-05-26T17:56:09.937Z,43.80
2018-05-26T17:58:36.150Z,43.80
2018-05-26T18:01:03.183Z,45.20
2018-05-26T18:03:30.208Z,45.50
2018-05-26T18:05:57.207Z,45.40
2018-05-26T18:08:23.463Z,45.30
2018-05-26T18:10:50.437Z,46.10
2018-05-26T18:13:16.693Z,46.20
2018-05-26T18:15:43.628Z,46.40
2018-05-26T18:18:09.851Z,46.40
2018-05-26T18:20:36.090Z,46.90
2018-05-26T18:23:02.365Z,46.10
2018-05-26T18:25:28.970Z,46.90
2018-05-26T18:27:55.481Z,47.30
2018-05-26T18:30:22.468Z,48.30
2018-05-26T18:32:48.737Z,47.90
2018-05-26T18:35:14.905Z,47.00
2018-05-26T18:37:41.138Z,47.20
2018-05-26T18:40:07.975Z,47.80
2018-05-26T18:42:34.259Z,48.30
2018-05-26T18:45:00.541Z,48.40
2018-05-26T18:47:26.773Z,48.80
2018-05-26T18:49:53.034Z,48.60
2018-05-26T18:52:19.275Z,48.70
2018-05-26T18:54:45.596Z,48.90
2018-05-26T18:57:11.871Z,48.90
2018-05-26T18:59:39.968Z,49.30
2018-05-26T19:02:06.276Z,49.20
2018-05-26T19:04:32.560Z,49.70
2018-05-26T19:06:58.784Z,49.10
2018-05-26T19:09:25.063Z,49.40
2018-05-26T19:11:51.302Z,49.40
2018-05-26T19:14:17.561Z,49.10
2018-05-26T19:16:43.838Z,49.30
2018-05-26T19:19:10.079Z,49.10
2018-05-26T19:21:36.338Z,49.10
2018-05-26T19:24:02.555Z,49.40
2018-05-26T19:26:28.764Z,49.70
2018-05-26T19:28:55.029Z,50.00
2018-05-26T19:31:21.245Z,49.90
2018-05-26T19:33:47.557Z,50.20
2018-05-26T19:36:13.853Z,50.20
2018-05-26T19:38:40.163Z,50.80
2018-05-26T19:41:06.407Z,50.70
2018-05-26T19:43:32.640Z,51.10
2018-05-26T19:45:59.644Z,51.00
2018-05-26T19:48:25.896Z,51.00
2018-05-26T19:50:52.928Z,52.60
2018-05-26T19:53:19.388Z,52.60
2018-05-26T19:55:46.234Z,54.50
2018-05-26T19:58:13.276Z,52.40
2018-05-26T20:00:40.264Z,53.00
2018-05-26T20:03:06.494Z,52.90
2018-05-26T20:05:32.883Z,54.00
2018-05-26T20:07:59.810Z,54.70
2018-05-26T20:10:27.358Z,53.50
2018-05-26T20:12:56.635Z,53.50
2018-05-26T20:15:23.979Z,53.70
2018-05-26T20:17:50.293Z,53.60
2018-05-26T20:20:17.239Z,55.80
2018-05-26T20:22:43.591Z,55.70
2018-05-26T20:25:10.079Z,56.50
2018-05-26T20:27:37.812Z,57.60
2018-05-26T20:30:04.932Z,57.60
2018-05-26T20:32:31.172Z,58.30
2018-05-26T20:34:58.125Z,57.90
2018-05-26T20:37:24.748Z,58.60
2018-05-26T20:39:51.210Z,58.70
2018-05-26T20:42:17.494Z,59.70
2018-05-26T20:44:43.813Z,60.20
2018-05-26T20:47:10.034Z,59.10
2018-05-26T20:49:37.009Z,60.70
2018-05-26T20:52:03.289Z,60.50
2018-05-26T20:54:29.560Z,61.90
2018-05-26T20:56:56.029Z,62.50
2018-05-26T20:59:23.015Z,61.90
2018-05-26T21:01:49.283Z,62.50
2018-05-26T21:04:15.618Z,63.50
2018-05-26T21:06:43.734Z,63.40
2018-05-26T21:09:10.704Z,64.80
2018-05-26T21:11:37.089Z,65.60
2018-05-26T21:14:03.843Z,64.60
2018-05-26T21:16:30.363Z,65.80
2018-05-26T21:18:56.727Z,66.10
2018-05-26T21:21:23.018Z,66.80
2018-05-26T21:23:49.439Z,67.20
2018-05-26T21:26:15.897Z,68.20
2018-05-26T21:28:42.422Z,69.20
2018-05-26T21:31:09.165Z,68.90
2018-05-26T21:33:35.928Z,69.90
2018-05-26T21:36:02.246Z,69.60
2018-05-26T21:38:28.629Z,70.40
2018-05-26T21:40:54.954Z,70.30
2018-05-26T21:43:21.278Z,71.00
2018-05-26T21:45:48.052Z,70.30
2018-05-26T21:48:15.474Z,71.90
2018-05-26T21:50:42.321Z,71.90
2018-05-26T21:53:08.987Z,72.30
2018-05-26T21:55:36.187Z,73.00
2018-05-26T21:58:02.567Z,73.70
2018-05-26T22:00:29.510Z,72.10
2018-05-26T22:02:55.761Z,72.00
2018-05-26T22:05:21.977Z,72.50
2018-05-26T22:07:48.965Z,73.90
2018-05-26T22:10:16.281Z,73.80
2018-05-26T22:12:42.693Z,73.90
2018-05-26T22:15:08.967Z,74.10
2018-05-26T22:17:35.281Z,74.50
2018-05-26T22:20:02.296Z,75.30
2018-05-26T22:22:28.495Z,75.10
2018-05-26T22:24:54.739Z,75.30
2018-05-26T22:27:20.959Z,75.10
2018-05-26T22:29:47.251Z,74.90
2018-05-26T22:32:14.332Z,74.00
2018-05-26T22:34:40.687Z,74.00
2018-05-26T22:37:08.413Z,74.40
2018-05-26T22:39:34.636Z,74.40
2018-05-26T22:42:01.120Z,74.60
2018-05-26T22:44:28.118Z,76.50
2018-05-26T22:46:54.406Z,76.50
2018-05-26T22:49:20.725Z,77.00
2018-05-26T22:51:47.008Z,76.50
2018-05-26T22:54:13.289Z,77.80
2018-05-26T22:56:39.530Z,77.80
2018-05-26T22:59:06.543Z,77.30
2018-05-26T23:01:32.810Z,77.20
2018-05-26T23:04:00.235Z,77.10
2018-05-26T23:06:27.318Z,76.90
2018-05-26T23:08:54.557Z,75.80
2018-05-26T23:11:21.702Z,75.70
2018-05-26T23:13:48.622Z,75.70
2018-05-26T23:16:14.940Z,76.90
2018-05-26T23:18:41.919Z,78.30
2018-05-26T23:21:08.625Z,78.30
2018-05-26T23:23:35.204Z,78.80
2018-05-26T23:26:01.792Z,78.40
2018-05-26T23:28:28.063Z,79.20
2018-05-26T23:30:55.216Z,79.20
2018-05-26T23:33:22.455Z,80.60
2018-05-26T23:35:49.914Z,80.40
2018-05-26T23:38:16.306Z,80.50
2018-05-26T23:40:42.890Z,80.40
2018-05-26T23:43:09.183Z,81.10
2018-05-26T23:45:35.869Z,80.40
2018-05-26T23:48:02.297Z,81.50
2018-05-26T23:50:28.659Z,80.90
2018-05-26T23:52:55.770Z,82.10
2018-05-26T23:55:22.777Z,82.70
2018-05-26T23:57:49.452Z,82.50
